sensor_id;sensor_type;location;lat;lon;timestamp;temperature;humidity
44359;DHT22;30077;52.474;13.326;2023-04-24T00:03:25;12.30;99.90
44359;DHT22;30077;52.474;13.326;2023-04-24T00:08:26;12.30;99.90
44359;DHT22;30077;52.474;13.326;2023-04-24T00:13:27;12.30;99.90
44359;DHT22;30077;52.474;13.326;2023-04-24T00:18:28;12.30;99.90
44359;DHT22;30077;52.474;13.326;2023-04-24T00:23:29;12.30;99.90
44359;DHT22;30077;52.474;13.326;2023-04-24T00:28:30;12.20;99.90
44359;DHT22;30077;52.474;13.326;2023-04-24T00:33:31;12.20;99.90
44359;DHT22;30077;52.474;13.326;2023-04-24T00:38:31;12.10;99.90
44359;DHT22;30077;52.474;13.326;2023-04-24T00:43:32;12.10;99.90
44359;DHT22;30077;52.474;13.326;2023-04-24T00:48:34;12.10;99.90
44359;DHT22;30077;52.474;13.326;2023-04-24T00:53:34;12.10;99.90
44359;DHT22;30077;52.474;13.326;2023-04-24T00:58:35;12.10;99.90
44359;DHT22;30077;52.474;13.326;2023-04-24T01:03:36;12.10;99.90
44359;DHT22;30077;52.474;13.326;2023-04-24T01:08:38;12.20;99.90
44359;DHT22;30077;52.474;13.326;2023-04-24T01:13:39;12.20;99.90
44359;DHT22;30077;52.474;13.326;2023-04-24T01:18:40;12.30;99.90
44359;DHT22;30077;52.474;13.326;2023-04-24T01:23:44;12.30;99.90
44359;DHT22;30077;52.474;13.326;2023-04-24T01:28:46;12.30;99.90
44359;DHT22;30077;52.474;13.326;2023-04-24T01:33:47;12.40;99.90
44359;DHT22;30077;52.474;13.326;2023-04-24T01:38:48;12.40;99.90
44359;DHT22;30077;52.474;13.326;2023-04-24T01:43:49;12.40;99.90
44359;DHT22;30077;52.474;13.326;2023-04-24T01:48:51;12.40;99.90
44359;DHT22;30077;52.474;13.326;2023-04-24T01:53:52;12.40;99.90
44359;DHT22;30077;52.474;13.326;2023-04-24T01:58:54;12.20;99.90
44359;DHT22;30077;52.474;13.326;2023-04-24T02:03:55;12.20;99.90
44359;DHT22;30077;52.474;13.326;2023-04-24T02:08:56;12.20;99.90
44359;DHT22;30077;52.474;13.326;2023-04-24T02:13:57;12.20;99.90
44359;DHT22;30077;52.474;13.326;2023-04-24T02:18:58;12.10;99.90
44359;DHT22;30077;52.474;13.326;2023-04-24T02:23:59;12.10;99.90
44359;DHT22;30077;52.474;13.326;2023-04-24T02:28:59;12.10;99.90
44359;DHT22;30077;52.474;13.326;2023-04-24T02:34:00;12.00;99.90
44359;DHT22;30077;52.474;13.326;2023-04-24T02:39:01;12.10;99.90
44359;DHT22;30077;52.474;13.326;2023-04-24T02:44:01;12.10;99.90
44359;DHT22;30077;52.474;13.326;2023-04-24T02:49:02;12.10;99.90
44359;DHT22;30077;52.474;13.326;2023-04-24T02:54:03;12.10;99.90
44359;DHT22;30077;52.474;13.326;2023-04-24T02:59:03;12.10;99.90
44359;DHT22;30077;52.474;13.326;2023-04-24T03:04:04;12.10;99.90
44359;DHT22;30077;52.474;13.326;2023-04-24T03:09:05;12.20;99.90
44359;DHT22;30077;52.474;13.326;2023-04-24T03:14:06;12.20;99.90
44359;DHT22;30077;52.474;13.326;2023-04-24T03:19:06;12.30;99.90
44359;DHT22;30077;52.474;13.326;2023-04-24T03:24:08;12.40;99.90
44359;DHT22;30077;52.474;13.326;2023-04-24T03:29:09;12.40;99.90
44359;DHT22;30077;52.474;13.326;2023-04-24T03:34:10;12.40;99.90
44359;DHT22;30077;52.474;13.326;2023-04-24T03:39:10;12.40;99.90
44359;DHT22;30077;52.474;13.326;2023-04-24T03:44:11;12.40;99.90
44359;DHT22;30077;52.474;13.326;2023-04-24T03:49:12;12.40;99.90
44359;DHT22;30077;52.474;13.326;2023-04-24T03:54:12;12.40;99.90
44359;DHT22;30077;52.474;13.326;2023-04-24T03:59:14;12.40;99.90
44359;DHT22;30077;52.474;13.326;2023-04-24T04:04:14;12.50;99.90
44359;DHT22;30077;52.474;13.326;2023-04-24T04:09:15;12.40;99.90
44359;DHT22;30077;52.474;13.326;2023-04-24T04:14:16;12.50;99.90
44359;DHT22;30077;52.474;13.326;2023-04-24T04:19:17;12.50;99.90
44359;DHT22;30077;52.474;13.326;2023-04-24T04:24:17;12.50;99.90
44359;DHT22;30077;52.474;13.326;2023-04-24T04:29:18;12.50;99.90
44359;DHT22;30077;52.474;13.326;2023-04-24T04:34:19;12.50;99.90
44359;DHT22;30077;52.474;13.326;2023-04-24T04:39:19;12.60;99.90
44359;DHT22;30077;52.474;13.326;2023-04-24T04:44:20;12.60;99.90
44359;DHT22;30077;52.474;13.326;2023-04-24T04:49:21;12.70;99.90
44359;DHT22;30077;52.474;13.326;2023-04-24T04:54:23;12.70;99.90
44359;DHT22;30077;52.474;13.326;2023-04-24T04:59:25;12.90;99.90
44359;DHT22;30077;52.474;13.326;2023-04-24T05:04:25;12.90;99.90
44359;DHT22;30077;52.474;13.326;2023-04-24T05:09:26;13.10;99.90
44359;DHT22;30077;52.474;13.326;2023-04-24T05:14:29;13.20;99.90
44359;DHT22;30077;52.474;13.326;2023-04-24T05:19:30;13.20;99.90
44359;DHT22;30077;52.474;13.326;2023-04-24T05:24:34;13.30;99.90
44359;DHT22;30077;52.474;13.326;2023-04-24T05:29:34;13.40;99.90
44359;DHT22;30077;52.474;13.326;2023-04-24T05:34:35;13.50;99.90
44359;DHT22;30077;52.474;13.326;2023-04-24T05:39:36;13.50;99.90
44359;DHT22;30077;52.474;13.326;2023-04-24T05:44:39;13.60;99.90
44359;DHT22;30077;52.474;13.326;2023-04-24T05:49:39;13.70;99.90
44359;DHT22;30077;52.474;13.326;2023-04-24T05:54:40;13.70;99.90
44359;DHT22;30077;52.474;13.326;2023-04-24T05:59:41;13.60;99.90
44359;DHT22;30077;52.474;13.326;2023-04-24T06:04:41;13.70;99.90
44359;DHT22;30077;52.474;13.326;2023-04-24T06:09:42;13.70;99.90
44359;DHT22;30077;52.474;13.326;2023-04-24T06:14:45;13.90;99.90
44359;DHT22;30077;52.474;13.326;2023-04-24T06:19:46;14.00;99.90
44359;DHT22;30077;52.474;13.326;2023-04-24T06:24:47;14.10;99.90
44359;DHT22;30077;52.474;13.326;2023-04-24T06:29:48;14.30;99.90
44359;DHT22;30077;52.474;13.326;2023-04-24T06:34:57;14.50;99.90
44359;DHT22;30077;52.474;13.326;2023-04-24T06:39:57;14.90;99.90
44359;DHT22;30077;52.474;13.326;2023-04-24T06:44:58;15.10;99.90
44359;DHT22;30077;52.474;13.326;2023-04-24T06:49:59;15.20;99.90
44359;DHT22;30077;52.474;13.326;2023-04-24T06:55:03;15.40;99.90
44359;DHT22;30077;52.474;13.326;2023-04-24T07:00:05;15.50;99.90
44359;DHT22;30077;52.474;13.326;2023-04-24T07:05:07;15.60;99.90
44359;DHT22;30077;52.474;13.326;2023-04-24T07:10:08;15.60;99.90
44359;DHT22;30077;52.474;13.326;2023-04-24T07:15:09;15.60;99.90
44359;DHT22;30077;52.474;13.326;2023-04-24T07:20:11;15.90;99.90
44359;DHT22;30077;52.474;13.326;2023-04-24T07:25:12;16.40;99.90
44359;DHT22;30077;52.474;13.326;2023-04-24T07:30:13;16.50;99.90
44359;DHT22;30077;52.474;13.326;2023-04-24T07:35:14;16.30;99.90
44359;DHT22;30077;52.474;13.326;2023-04-24T07:40:15;16.20;99.90
44359;DHT22;30077;52.474;13.326;2023-04-24T07:45:16;16.10;99.90
44359;DHT22;30077;52.474;13.326;2023-04-24T07:50:17;16.10;99.90
44359;DHT22;30077;52.474;13.326;2023-04-24T07:55:17;16.30;99.90
44359;DHT22;30077;52.474;13.326;2023-04-24T08:00:19;16.50;99.90
44359;DHT22;30077;52.474;13.326;2023-04-24T08:05:20;16.70;99.90
44359;DHT22;30077;52.474;13.326;2023-04-24T08:10:22;17.00;99.90
44359;DHT22;30077;52.474;13.326;2023-04-24T08:15:23;17.20;99.90
44359;DHT22;30077;52.474;13.326;2023-04-24T08:20:24;17.30;99.90
44359;DHT22;30077;52.474;13.326;2023-04-24T08:25:25;17.60;99.90
44359;DHT22;30077;52.474;13.326;2023-04-24T08:30:25;17.80;99.90
44359;DHT22;30077;52.474;13.326;2023-04-24T08:35:26;17.80;99.90
44359;DHT22;30077;52.474;13.326;2023-04-24T08:40:28;18.20;99.90
44359;DHT22;30077;52.474;13.326;2023-04-24T08:45:30;18.40;99.90
44359;DHT22;30077;52.474;13.326;2023-04-24T08:50:32;18.80;99.90
44359;DHT22;30077;52.474;13.326;2023-04-24T08:55:33;19.30;99.70
44359;DHT22;30077;52.474;13.326;2023-04-24T09:00:34;19.50;99.50
44359;DHT22;30077;52.474;13.326;2023-04-24T09:05:34;19.60;99.90
44359;DHT22;30077;52.474;13.326;2023-04-24T09:10:35;19.30;99.90
44359;DHT22;30077;52.474;13.326;2023-04-24T09:15:37;19.00;99.90
44359;DHT22;30077;52.474;13.326;2023-04-24T09:21:00;19.20;99.90
44359;DHT22;30077;52.474;13.326;2023-04-24T09:26:03;19.40;99.90
44359;DHT22;30077;52.474;13.326;2023-04-24T09:31:13;18.90;99.90
44359;DHT22;30077;52.474;13.326;2023-04-24T09:36:17;19.50;99.90
44359;DHT22;30077;52.474;13.326;2023-04-24T09:41:18;19.60;99.90
44359;DHT22;30077;52.474;13.326;2023-04-24T09:46:19;19.60;99.90
44359;DHT22;30077;52.474;13.326;2023-04-24T09:51:33;19.90;99.90
44359;DHT22;30077;52.474;13.326;2023-04-24T09:56:42;19.70;99.90
44359;DHT22;30077;52.474;13.326;2023-04-24T10:01:45;20.00;99.90
44359;DHT22;30077;52.474;13.326;2023-04-24T10:06:47;20.00;99.90
44359;DHT22;30077;52.474;13.326;2023-04-24T10:11:50;19.70;99.90
44359;DHT22;30077;52.474;13.326;2023-04-24T10:16:55;20.40;99.30
44359;DHT22;30077;52.474;13.326;2023-04-24T10:21:58;20.40;98.70
44359;DHT22;30077;52.474;13.326;2023-04-24T10:26:59;20.20;99.30
44359;DHT22;30077;52.474;13.326;2023-04-24T10:32:02;19.70;99.90
44359;DHT22;30077;52.474;13.326;2023-04-24T10:37:02;19.60;99.90
44359;DHT22;30077;52.474;13.326;2023-04-24T10:42:16;19.10;99.90
44359;DHT22;30077;52.474;13.326;2023-04-24T10:47:17;18.90;99.90
44359;DHT22;30077;52.474;13.326;2023-04-24T10:52:18;19.20;99.90
44359;DHT22;30077;52.474;13.326;2023-04-24T11:02:38;19.50;99.90
44359;DHT22;30077;52.474;13.326;2023-04-24T11:08:12;20.00;99.50
44359;DHT22;30077;52.474;13.326;2023-04-24T11:13:16;20.20;99.10
44359;DHT22;30077;52.474;13.326;2023-04-24T11:18:17;20.70;97.30
44359;DHT22;30077;52.474;13.326;2023-04-24T11:23:18;20.80;97.00
44359;DHT22;30077;52.474;13.326;2023-04-24T11:28:20;20.60;97.50
44359;DHT22;30077;52.474;13.326;2023-04-24T11:33:21;19.90;97.80
44359;DHT22;30077;52.474;13.326;2023-04-24T11:38:21;19.60;99.20
44359;DHT22;30077;52.474;13.326;2023-04-24T11:43:22;19.30;99.90
44359;DHT22;30077;52.474;13.326;2023-04-24T11:48:23;18.90;99.90
44359;DHT22;30077;52.474;13.326;2023-04-24T11:53:24;19.10;99.90
44359;DHT22;30077;52.474;13.326;2023-04-24T11:58:25;19.30;99.90
44359;DHT22;30077;52.474;13.326;2023-04-24T12:03:27;19.70;99.90
44359;DHT22;30077;52.474;13.326;2023-04-24T12:08:28;19.70;99.90
44359;DHT22;30077;52.474;13.326;2023-04-24T12:13:29;19.30;99.90
44359;DHT22;30077;52.474;13.326;2023-04-24T12:18:30;19.10;99.90
44359;DHT22;30077;52.474;13.326;2023-04-24T12:23:35;19.50;99.90
44359;DHT22;30077;52.474;13.326;2023-04-24T12:28:37;19.60;99.90
44359;DHT22;30077;52.474;13.326;2023-04-24T12:33:38;19.60;96.00
44359;DHT22;30077;52.474;13.326;2023-04-24T12:38:39;19.90;94.00
44359;DHT22;30077;52.474;13.326;2023-04-24T12:43:53;20.10;91.20
44359;DHT22;30077;52.474;13.326;2023-04-24T12:48:55;20.20;88.90
44359;DHT22;30077;52.474;13.326;2023-04-24T12:53:56;20.10;85.20
44359;DHT22;30077;52.474;13.326;2023-04-24T12:58:57;19.90;85.20
44359;DHT22;30077;52.474;13.326;2023-04-24T13:03:58;20.00;83.20
44359;DHT22;30077;52.474;13.326;2023-04-24T13:08:59;20.20;82.50
44359;DHT22;30077;52.474;13.326;2023-04-24T13:14:00;20.30;82.00
44359;DHT22;30077;52.474;13.326;2023-04-24T13:19:02;20.40;81.80
44359;DHT22;30077;52.474;13.326;2023-04-24T13:24:03;20.10;82.70
44359;DHT22;30077;52.474;13.326;2023-04-24T13:29:05;19.90;81.90
44359;DHT22;30077;52.474;13.326;2023-04-24T13:34:05;20.40;80.90
44359;DHT22;30077;52.474;13.326;2023-04-24T13:39:06;20.50;79.40
44359;DHT22;30077;52.474;13.326;2023-04-24T13:44:07;20.50;79.30
44359;DHT22;30077;52.474;13.326;2023-04-24T13:49:09;20.70;77.60
44359;DHT22;30077;52.474;13.326;2023-04-24T13:54:10;20.40;76.50
44359;DHT22;30077;52.474;13.326;2023-04-24T13:59:12;20.00;77.20
44359;DHT22;30077;52.474;13.326;2023-04-24T14:04:13;19.60;78.80
44359;DHT22;30077;52.474;13.326;2023-04-24T14:09:14;19.90;78.60
44359;DHT22;30077;52.474;13.326;2023-04-24T14:14:15;19.90;77.60
44359;DHT22;30077;52.474;13.326;2023-04-24T14:19:16;19.70;77.10
44359;DHT22;30077;52.474;13.326;2023-04-24T14:24:16;19.70;76.20
44359;DHT22;30077;52.474;13.326;2023-04-24T14:29:17;19.60;76.80
44359;DHT22;30077;52.474;13.326;2023-04-24T14:34:19;19.60;76.90
44359;DHT22;30077;52.474;13.326;2023-04-24T14:39:20;19.30;75.80
44359;DHT22;30077;52.474;13.326;2023-04-24T14:44:21;19.10;77.60
44359;DHT22;30077;52.474;13.326;2023-04-24T14:49:23;19.10;79.30
44359;DHT22;30077;52.474;13.326;2023-04-24T14:54:23;18.90;79.00
44359;DHT22;30077;52.474;13.326;2023-04-24T14:59:25;18.80;78.80
44359;DHT22;30077;52.474;13.326;2023-04-24T15:04:26;19.00;79.20
44359;DHT22;30077;52.474;13.326;2023-04-24T15:09:27;19.20;79.60
44359;DHT22;30077;52.474;13.326;2023-04-24T15:14:28;19.20;78.80
44359;DHT22;30077;52.474;13.326;2023-04-24T15:19:29;19.00;78.70
44359;DHT22;30077;52.474;13.326;2023-04-24T15:24:30;19.00;79.50
44359;DHT22;30077;52.474;13.326;2023-04-24T15:29:30;18.80;78.00
44359;DHT22;30077;52.474;13.326;2023-04-24T15:34:31;18.40;79.70
44359;DHT22;30077;52.474;13.326;2023-04-24T15:39:32;17.90;81.30
44359;DHT22;30077;52.474;13.326;2023-04-24T15:44:33;17.70;81.80
44359;DHT22;30077;52.474;13.326;2023-04-24T15:49:33;17.70;82.40
44359;DHT22;30077;52.474;13.326;2023-04-24T15:54:34;17.70;82.40
44359;DHT22;30077;52.474;13.326;2023-04-24T15:59:35;17.80;82.20
44359;DHT22;30077;52.474;13.326;2023-04-24T16:04:36;17.60;82.40
44359;DHT22;30077;52.474;13.326;2023-04-24T16:09:37;17.40;83.90
44359;DHT22;30077;52.474;13.326;2023-04-24T16:14:38;17.30;84.30
44359;DHT22;30077;52.474;13.326;2023-04-24T16:19:38;17.60;83.90
44359;DHT22;30077;52.474;13.326;2023-04-24T16:24:39;17.70;82.90
44359;DHT22;30077;52.474;13.326;2023-04-24T16:29:40;17.60;83.10
44359;DHT22;30077;52.474;13.326;2023-04-24T16:34:40;17.40;83.60
44359;DHT22;30077;52.474;13.326;2023-04-24T16:39:41;17.20;85.50
44359;DHT22;30077;52.474;13.326;2023-04-24T16:44:44;17.00;86.80
44359;DHT22;30077;52.474;13.326;2023-04-24T16:49:47;16.70;89.70
44359;DHT22;30077;52.474;13.326;2023-04-24T16:54:50;16.30;91.50
44359;DHT22;30077;52.474;13.326;2023-04-24T16:59:50;16.20;92.50
44359;DHT22;30077;52.474;13.326;2023-04-24T17:04:51;15.80;93.50
44359;DHT22;30077;52.474;13.326;2023-04-24T17:09:52;15.60;95.10
44359;DHT22;30077;52.474;13.326;2023-04-24T17:14:52;15.20;97.60
44359;DHT22;30077;52.474;13.326;2023-04-24T17:19:53;15.10;99.90
44359;DHT22;30077;52.474;13.326;2023-04-24T17:24:55;15.00;99.90
44359;DHT22;30077;52.474;13.326;2023-04-24T17:29:55;14.90;99.90
44359;DHT22;30077;52.474;13.326;2023-04-24T17:34:56;14.70;99.90
44359;DHT22;30077;52.474;13.326;2023-04-24T17:39:57;14.50;99.90
44359;DHT22;30077;52.474;13.326;2023-04-24T17:44:58;14.30;99.90
44359;DHT22;30077;52.474;13.326;2023-04-24T17:49:58;14.20;99.90
44359;DHT22;30077;52.474;13.326;2023-04-24T17:55:00;14.10;99.90
44359;DHT22;30077;52.474;13.326;2023-04-24T18:00:00;13.90;99.90
44359;DHT22;30077;52.474;13.326;2023-04-24T18:05:01;13.70;99.90
44359;DHT22;30077;52.474;13.326;2023-04-24T18:10:02;13.50;99.90
44359;DHT22;30077;52.474;13.326;2023-04-24T18:15:03;13.40;99.90
44359;DHT22;30077;52.474;13.326;2023-04-24T18:20:05;13.40;99.90
44359;DHT22;30077;52.474;13.326;2023-04-24T18:25:06;13.30;99.90
44359;DHT22;30077;52.474;13.326;2023-04-24T18:30:08;13.40;99.90
44359;DHT22;30077;52.474;13.326;2023-04-24T18:35:10;13.20;99.90
44359;DHT22;30077;52.474;13.326;2023-04-24T18:40:12;13.20;99.90
44359;DHT22;30077;52.474;13.326;2023-04-24T18:45:13;13.00;99.90
44359;DHT22;30077;52.474;13.326;2023-04-24T18:50:15;12.70;99.90
44359;DHT22;30077;52.474;13.326;2023-04-24T18:55:15;12.50;99.90
44359;DHT22;30077;52.474;13.326;2023-04-24T19:00:16;12.20;99.90
44359;DHT22;30077;52.474;13.326;2023-04-24T19:05:18;12.10;99.90
44359;DHT22;30077;52.474;13.326;2023-04-24T19:10:18;11.90;99.90
44359;DHT22;30077;52.474;13.326;2023-04-24T19:15:19;11.80;99.90
44359;DHT22;30077;52.474;13.326;2023-04-24T19:20:20;11.80;99.90
44359;DHT22;30077;52.474;13.326;2023-04-24T19:25:21;11.90;99.90
44359;DHT22;30077;52.474;13.326;2023-04-24T19:30:22;11.80;99.90
44359;DHT22;30077;52.474;13.326;2023-04-24T19:35:22;11.80;99.90
44359;DHT22;30077;52.474;13.326;2023-04-24T19:40:24;11.80;99.90
44359;DHT22;30077;52.474;13.326;2023-04-24T19:45:25;11.70;99.90
44359;DHT22;30077;52.474;13.326;2023-04-24T19:50:26;11.60;99.90
44359;DHT22;30077;52.474;13.326;2023-04-24T19:55:27;11.50;99.90
44359;DHT22;30077;52.474;13.326;2023-04-24T20:00:27;11.30;99.90
44359;DHT22;30077;52.474;13.326;2023-04-24T20:05:28;11.10;99.90
44359;DHT22;30077;52.474;13.326;2023-04-24T20:10:29;11.00;99.90
44359;DHT22;30077;52.474;13.326;2023-04-24T20:15:30;10.90;99.90
44359;DHT22;30077;52.474;13.326;2023-04-24T20:20:32;10.80;99.90
44359;DHT22;30077;52.474;13.326;2023-04-24T20:25:34;10.80;99.90
44359;DHT22;30077;52.474;13.326;2023-04-24T20:30:36;10.80;99.90
44359;DHT22;30077;52.474;13.326;2023-04-24T20:35:37;10.80;99.90
44359;DHT22;30077;52.474;13.326;2023-04-24T20:40:38;10.80;99.90
44359;DHT22;30077;52.474;13.326;2023-04-24T20:45:39;10.80;99.90
44359;DHT22;30077;52.474;13.326;2023-04-24T20:50:40;10.70;99.90
44359;DHT22;30077;52.474;13.326;2023-04-24T20:55:40;10.80;99.90
44359;DHT22;30077;52.474;13.326;2023-04-24T21:00:41;10.80;99.90
44359;DHT22;30077;52.474;13.326;2023-04-24T21:05:42;10.90;99.90
44359;DHT22;30077;52.474;13.326;2023-04-24T21:10:42;10.90;99.90
44359;DHT22;30077;52.474;13.326;2023-04-24T21:15:43;10.80;99.90
44359;DHT22;30077;52.474;13.326;2023-04-24T21:20:45;10.80;99.90
44359;DHT22;30077;52.474;13.326;2023-04-24T21:25:46;10.60;99.90
44359;DHT22;30077;52.474;13.326;2023-04-24T21:30:47;10.60;99.90
44359;DHT22;30077;52.474;13.326;2023-04-24T21:35:48;10.70;99.90
44359;DHT22;30077;52.474;13.326;2023-04-24T21:40:49;10.70;99.90
44359;DHT22;30077;52.474;13.326;2023-04-24T21:45:50;10.70;99.90
44359;DHT22;30077;52.474;13.326;2023-04-24T21:50:51;10.60;99.90
44359;DHT22;30077;52.474;13.326;2023-04-24T21:55:52;10.60;99.90
44359;DHT22;30077;52.474;13.326;2023-04-24T22:00:53;10.60;99.90
44359;DHT22;30077;52.474;13.326;2023-04-24T22:05:53;10.40;99.90
44359;DHT22;30077;52.474;13.326;2023-04-24T22:10:54;10.50;99.90
44359;DHT22;30077;52.474;13.326;2023-04-24T22:15:55;10.30;99.90
44359;DHT22;30077;52.474;13.326;2023-04-24T22:20:56;10.20;99.90
44359;DHT22;30077;52.474;13.326;2023-04-24T22:25:57;10.10;99.90
44359;DHT22;30077;52.474;13.326;2023-04-24T22:30:58;10.00;99.90
44359;DHT22;30077;52.474;13.326;2023-04-24T22:35:59;10.00;99.90
44359;DHT22;30077;52.474;13.326;2023-04-24T22:41:00;10.00;99.90
44359;DHT22;30077;52.474;13.326;2023-04-24T22:46:01;9.90;99.90
44359;DHT22;30077;52.474;13.326;2023-04-24T22:51:02;9.80;99.90
44359;DHT22;30077;52.474;13.326;2023-04-24T22:56:03;9.80;99.90
44359;DHT22;30077;52.474;13.326;2023-04-24T23:01:04;9.90;99.90
44359;DHT22;30077;52.474;13.326;2023-04-24T23:06:05;10.00;99.90
44359;DHT22;30077;52.474;13.326;2023-04-24T23:11:05;10.10;99.90
44359;DHT22;30077;52.474;13.326;2023-04-24T23:16:06;10.10;99.90
44359;DHT22;30077;52.474;13.326;2023-04-24T23:21:07;10.20;99.90
44359;DHT22;30077;52.474;13.326;2023-04-24T23:26:07;10.20;99.90
44359;DHT22;30077;52.474;13.326;2023-04-24T23:31:08;10.20;99.90
44359;DHT22;30077;52.474;13.326;2023-04-24T23:36:10;10.10;99.90
44359;DHT22;30077;52.474;13.326;2023-04-24T23:41:10;10.00;99.90
44359;DHT22;30077;52.474;13.326;2023-04-24T23:46:11;9.90;99.90
44359;DHT22;30077;52.474;13.326;2023-04-24T23:51:12;9.80;99.90
44359;DHT22;30077;52.474;13.326;2023-04-24T23:56:13;9.70;99.90
